createdAt,value
2022-11-19T00:01:57.351Z,102330.22
2022-11-19T00:04:26.717Z,102332.84
2022-11-19T00:06:54.703Z,102337.13
2022-11-19T00:09:22.645Z,102333.69
2022-11-19T00:12:07.864Z,102337.97
2022-11-19T00:14:35.988Z,102345.78
2022-11-19T00:17:04.124Z,102343.16
2022-11-19T00:19:33.336Z,102345.78
2022-11-19T00:22:01.281Z,102350.06
2022-11-19T00:24:29.318Z,102346.69
2022-11-19T00:26:57.436Z,102344.13
2022-11-19T00:29:25.320Z,102344.13
2022-11-19T00:31:53.203Z,102340.66
2022-11-19T00:34:21.162Z,102341.56
2022-11-19T00:36:51.114Z,102339.88
2022-11-19T00:39:19.619Z,102342.44
2022-11-19T00:41:47.566Z,102343.31
2022-11-19T00:44:15.397Z,102344.19
2022-11-19T00:46:43.275Z,102340.75
2022-11-19T00:49:11.537Z,102341.56
2022-11-19T00:51:39.405Z,102337.28
2022-11-19T00:54:08.766Z,102335.53
2022-11-19T00:56:36.693Z,102333.84
2022-11-19T00:59:05.032Z,102331.28
2022-11-19T01:01:33.076Z,102337.25
2022-11-19T01:04:01.218Z,102330.41
2022-11-19T01:06:29.479Z,102332.06
2022-11-19T01:08:58.192Z,102341.66
2022-11-19T01:11:29.956Z,102341.66
2022-11-19T01:13:59.683Z,102335.59
2022-11-19T01:16:29.974Z,102322.81
2022-11-19T01:18:58.880Z,102326.19
2022-11-19T01:21:29.900Z,102327.03
2022-11-19T01:23:58.979Z,102324.44
2022-11-19T01:26:29.302Z,102321.06
2022-11-19T01:28:57.500Z,102319.31
2022-11-19T01:31:27.648Z,102314.16
2022-11-19T01:33:55.677Z,102312.47
2022-11-19T01:36:25.776Z,102314.25
2022-11-19T01:38:54.610Z,102316.81
2022-11-19T01:41:24.357Z,102315.94
2022-11-19T01:43:56.112Z,102312.47
2022-11-19T01:46:26.955Z,102312.50
2022-11-19T01:48:59.018Z,102317.69
2022-11-19T01:51:30.586Z,102316.81
2022-11-19T01:54:01.950Z,102322.81
2022-11-19T01:56:32.732Z,102322.00
2022-11-19T01:59:06.650Z,102324.59
2022-11-19T02:01:34.974Z,102330.56
2022-11-19T02:04:04.998Z,102335.78
2022-11-19T02:06:34.940Z,102333.16
2022-11-19T02:09:02.840Z,102334.94
2022-11-19T02:11:55.989Z,102328.06
2022-11-19T02:14:43.054Z,102322.91
2022-11-19T02:17:21.153Z,102328.97
2022-11-19T02:20:27.336Z,102327.31
2022-11-19T02:23:16.343Z,102329.88
2022-11-19T02:26:06.842Z,102325.59
2022-11-19T02:28:37.789Z,102326.44
2022-11-19T02:31:12.860Z,102326.41
2022-11-19T02:33:49.936Z,102328.16
2022-11-19T02:36:23.227Z,102333.34
2022-11-19T02:38:53.553Z,102326.44
2022-11-19T02:41:35.842Z,102326.44
2022-11-19T02:44:41.819Z,102325.56
2022-11-19T02:47:16.042Z,102323.81
2022-11-19T02:49:45.630Z,102322.97
2022-11-19T02:52:15.799Z,102316.97
2022-11-19T02:54:43.506Z,102308.38
2022-11-19T02:57:12.277Z,102299.75
2022-11-19T03:00:06.956Z,102296.38
2022-11-19T03:02:57.966Z,102296.34
2022-11-19T03:05:30.875Z,102294.63
2022-11-19T03:07:59.218Z,102281.75
2022-11-19T03:10:33.482Z,102276.66
2022-11-19T03:13:29.824Z,102274.06
2022-11-19T03:16:19.300Z,102281.88
2022-11-19T03:18:54.895Z,102285.31
2022-11-19T03:21:28.410Z,102293.94
2022-11-19T03:24:01.656Z,102295.69
2022-11-19T03:26:33.667Z,102293.09
2022-11-19T03:29:05.705Z,102281.13
2022-11-19T03:31:35.763Z,102291.38
2022-11-19T03:34:10.855Z,102299.91
2022-11-19T03:36:42.498Z,102295.59
2022-11-19T03:39:14.528Z,102295.63
2022-11-19T03:41:46.148Z,102287.00
2022-11-19T03:44:17.607Z,102298.16
2022-11-19T03:46:48.456Z,102299.06
2022-11-19T03:49:23.240Z,102287.84
2022-11-19T03:51:58.066Z,102297.28
2022-11-19T03:54:25.949Z,102294.72
2022-11-19T03:56:54.626Z,102288.75
2022-11-19T03:59:29.443Z,102296.47
2022-11-19T04:02:00.150Z,102297.28
2022-11-19T04:04:38.602Z,102296.44
2022-11-19T04:07:12.202Z,102295.56
2022-11-19T04:09:41.665Z,102294.72
2022-11-19T04:12:15.961Z,102293.81
2022-11-19T04:14:43.996Z,102301.56
2022-11-19T04:17:12.415Z,102291.28
2022-11-19T04:19:41.697Z,102287.78
2022-11-19T04:22:09.583Z,102285.19
2022-11-19T04:24:37.474Z,102291.25
2022-11-19T04:27:05.697Z,102289.50
2022-11-19T04:29:33.642Z,102283.50
2022-11-19T04:32:01.570Z,102302.38
2022-11-19T04:34:29.634Z,102294.63
2022-11-19T04:36:58.882Z,102288.66
2022-11-19T04:39:27.127Z,102289.44
2022-11-19T04:41:55.073Z,102285.13
2022-11-19T04:44:22.948Z,102283.44
2022-11-19T04:46:50.841Z,102282.56
2022-11-19T04:49:18.964Z,102277.34
2022-11-19T04:51:47.119Z,102279.94
2022-11-19T04:54:16.408Z,102281.66
2022-11-19T04:56:44.293Z,102285.97
2022-11-19T04:59:12.369Z,102285.09
2022-11-19T05:01:40.309Z,102282.56
2022-11-19T05:04:08.270Z,102282.50
2022-11-19T05:06:36.381Z,102275.66
2022-11-19T05:09:04.425Z,102275.63
2022-11-19T05:11:33.838Z,102273.03
2022-11-19T05:14:01.867Z,102267.88
2022-11-19T05:16:29.753Z,102276.44
2022-11-19T05:18:57.646Z,102274.72
2022-11-19T05:21:25.713Z,102271.22
2022-11-19T05:23:53.580Z,102278.16
2022-11-19T05:26:21.453Z,102261.81
2022-11-19T05:28:50.841Z,102266.94
2022-11-19T05:31:18.682Z,102267.81
2022-11-19T05:33:46.561Z,102261.78
2022-11-19T05:36:14.488Z,102260.03
2022-11-19T05:38:42.380Z,102255.72
2022-11-19T05:41:10.226Z,102254.91
2022-11-19T05:43:38.078Z,102260.03
2022-11-19T05:46:07.469Z,102266.91
2022-11-19T05:48:35.474Z,102266.91
2022-11-19T05:51:03.337Z,102269.47
2022-11-19T05:53:31.428Z,102261.69
2022-11-19T05:55:59.330Z,102265.97
2022-11-19T05:58:27.236Z,102268.53
2022-11-19T06:00:56.284Z,102264.28
2022-11-19T06:03:25.573Z,102260.03
2022-11-19T06:05:54.067Z,102256.59
2022-11-19T06:08:22.331Z,102245.34
2022-11-19T06:10:50.241Z,102248.78
2022-11-19T06:13:18.429Z,102247.09
2022-11-19T06:15:46.312Z,102251.34
2022-11-19T06:18:14.216Z,102242.75
2022-11-19T06:20:43.615Z,102238.44
2022-11-19T06:23:11.516Z,102241.88
2022-11-19T06:25:39.456Z,102233.31
2022-11-19T06:28:08.134Z,102235.00
2022-11-19T06:30:36.711Z,102235.91
2022-11-19T06:33:04.837Z,102226.38
2022-11-19T06:35:32.955Z,102228.13
2022-11-19T06:38:05.215Z,102234.09
2022-11-19T06:40:35.903Z,102222.06
2022-11-19T06:43:03.983Z,102223.75
2022-11-19T06:45:31.897Z,102223.75
2022-11-19T06:47:59.810Z,102219.44
2022-11-19T06:50:28.405Z,102215.13
2022-11-19T06:52:56.260Z,102215.06
2022-11-19T06:55:25.697Z,102209.03
2022-11-19T06:57:54.006Z,102212.47
2022-11-19T07:00:21.879Z,102212.47
2022-11-19T07:02:49.768Z,102217.66
2022-11-19T07:05:17.722Z,102219.31
2022-11-19T07:07:45.634Z,102215.84
2022-11-19T07:10:13.570Z,102213.31
2022-11-19T07:12:42.985Z,102221.03
2022-11-19T07:15:11.958Z,102221.03
2022-11-19T07:17:40.213Z,102224.50
2022-11-19T07:20:09.850Z,102224.50
2022-11-19T07:22:37.708Z,102220.22
2022-11-19T07:25:06.172Z,102220.22
2022-11-19T07:27:34.044Z,102219.41
2022-11-19T07:30:05.122Z,102214.22
2022-11-19T07:32:33.293Z,102215.09
2022-11-19T07:35:01.211Z,102218.56
2022-11-19T07:37:29.239Z,102225.50
2022-11-19T07:39:57.128Z,102233.41
2022-11-19T07:42:42.303Z,102236.84
2022-11-19T07:45:12.832Z,102228.28
2022-11-19T07:47:42.208Z,102224.88
2022-11-19T07:50:10.605Z,102233.53
2022-11-19T07:52:38.511Z,102231.88
2022-11-19T07:55:08.259Z,102233.63
2022-11-19T07:57:36.290Z,102227.59
2022-11-19T08:00:04.359Z,102228.56
2022-11-19T08:02:33.732Z,102226.84
2022-11-19T08:05:01.776Z,102227.72
2022-11-19T08:07:29.862Z,102231.19
2022-11-19T08:09:57.782Z,102222.53
2022-11-19T08:12:26.093Z,102218.25
2022-11-19T08:14:53.950Z,102233.75
2022-11-19T08:17:47.661Z,102230.34
2022-11-19T08:20:18.286Z,102228.59
2022-11-19T08:22:46.623Z,102218.28
2022-11-19T08:25:14.741Z,102214.78
2022-11-19T08:27:42.647Z,102218.25
2022-11-19T08:30:11.450Z,102201.97
2022-11-19T08:32:39.315Z,102206.28
2022-11-19T08:35:08.256Z,102216.59
2022-11-19T08:37:37.542Z,102213.09
2022-11-19T08:40:05.971Z,102211.38
2022-11-19T08:42:51.378Z,102205.34
2022-11-19T08:45:20.888Z,102209.56
2022-11-19T08:47:49.221Z,102217.34
2022-11-19T08:50:17.488Z,102215.66
2022-11-19T08:52:47.122Z,102201.00
2022-11-19T08:55:15.278Z,102216.50
2022-11-19T08:57:43.191Z,102221.59
2022-11-19T09:00:12.361Z,102214.72
2022-11-19T09:02:40.182Z,102209.53
2022-11-19T09:05:13.350Z,102220.75
2022-11-19T09:07:42.608Z,102217.28
2022-11-19T09:10:12.302Z,102201.78
2022-11-19T09:12:40.203Z,102207.78
2022-11-19T09:15:09.169Z,102207.78
2022-11-19T09:17:40.140Z,102203.53
2022-11-19T09:20:11.121Z,102193.16
2022-11-19T09:22:39.662Z,102184.56
2022-11-19T09:25:10.061Z,102194.03
2022-11-19T09:27:39.525Z,102181.06
2022-11-19T09:30:10.105Z,102182.78
2022-11-19T09:32:38.301Z,102190.53
2022-11-19T09:35:09.884Z,102189.66
2022-11-19T09:37:37.736Z,102184.47
2022-11-19T09:40:12.116Z,102187.97
2022-11-19T09:42:52.132Z,102192.22
2022-11-19T09:45:23.887Z,102193.03
2022-11-19T09:48:17.388Z,102177.56
2022-11-19T09:50:53.995Z,102176.72
2022-11-19T09:53:23.682Z,102174.09
2022-11-19T09:55:55.060Z,102170.63
2022-11-19T09:58:28.919Z,102153.47
2022-11-19T10:00:56.853Z,102160.34
2022-11-19T10:03:32.769Z,102155.97
2022-11-19T10:06:13.589Z,102162.09
2022-11-19T10:08:55.210Z,102158.59
2022-11-19T10:11:34.969Z,102150.88
2022-11-19T10:14:14.902Z,102160.31
2022-11-19T10:16:54.651Z,102156.91
2022-11-19T10:19:37.538Z,102156.91
2022-11-19T10:22:11.360Z,102153.53
2022-11-19T10:24:44.122Z,102149.19
2022-11-19T10:27:20.696Z,102146.66
2022-11-19T10:29:53.673Z,102135.50
2022-11-19T10:32:32.782Z,102144.94
2022-11-19T10:35:08.505Z,102143.19
2022-11-19T10:37:42.980Z,102130.28
2022-11-19T10:40:16.862Z,102131.16
2022-11-19T10:42:51.971Z,102129.38
2022-11-19T10:45:25.162Z,102134.66
2022-11-19T10:48:00.645Z,102128.63
2022-11-19T10:50:30.568Z,102118.28
2022-11-19T10:53:08.333Z,102118.28
2022-11-19T10:55:40.863Z,102111.38
2022-11-19T10:58:14.917Z,102118.28
2022-11-19T11:00:44.592Z,102114.78
2022-11-19T11:03:21.566Z,102105.44
2022-11-19T11:05:59.159Z,102112.22
2022-11-19T11:08:27.033Z,102101.97
2022-11-19T11:10:55.459Z,102104.53
2022-11-19T11:13:51.172Z,102098.59
2022-11-19T11:16:23.450Z,102108.91
2022-11-19T11:18:54.965Z,102102.00
2022-11-19T11:21:34.277Z,102104.66
2022-11-19T11:24:04.747Z,102099.47
2022-11-19T11:26:35.808Z,102101.16
2022-11-19T11:29:08.127Z,102092.56
2022-11-19T11:31:40.172Z,102088.19
2022-11-19T11:34:15.477Z,102086.50
2022-11-19T11:36:45.346Z,102092.50
2022-11-19T11:39:27.379Z,102092.53
2022-11-19T11:42:17.519Z,102104.63
2022-11-19T11:44:51.213Z,102095.16
2022-11-19T11:47:23.778Z,102094.28
2022-11-19T11:50:01.297Z,102085.66
2022-11-19T11:52:34.935Z,102080.53
2022-11-19T11:55:04.462Z,102081.38
2022-11-19T11:57:34.431Z,102065.88
2022-11-19T12:00:05.853Z,102073.63
2022-11-19T12:02:37.039Z,102077.06
2022-11-19T12:05:08.111Z,102095.97
2022-11-19T12:07:59.259Z,102076.19
2022-11-19T12:10:32.947Z,102077.00
2022-11-19T12:13:29.349Z,102074.50
2022-11-19T12:16:08.757Z,102070.13
2022-11-19T12:18:48.509Z,102063.25
2022-11-19T12:21:32.451Z,102070.13
2022-11-19T12:24:19.010Z,102068.38
2022-11-19T12:26:57.584Z,102070.09
2022-11-19T12:29:37.858Z,102077.91
2022-11-19T12:32:19.565Z,102074.44
2022-11-19T12:35:17.185Z,102073.53
2022-11-19T12:38:10.872Z,102064.16
2022-11-19T12:40:47.719Z,102066.72
2022-11-19T12:43:34.053Z,102066.72
2022-11-19T12:46:11.619Z,102072.75
2022-11-19T12:48:53.703Z,102079.69
2022-11-19T12:51:38.937Z,102075.38
2022-11-19T12:54:30.315Z,102079.69
2022-11-19T12:57:22.761Z,102074.56
2022-11-19T13:00:07.506Z,102071.13
2022-11-19T13:02:41.374Z,102077.06
2022-11-19T13:05:15.413Z,102080.56
2022-11-19T13:07:52.876Z,102069.44
2022-11-19T13:10:25.645Z,102068.56
2022-11-19T13:12:57.354Z,102073.75
2022-11-19T13:15:31.192Z,102077.13
2022-11-19T13:18:02.490Z,102074.59
2022-11-19T13:20:38.396Z,102065.09
2022-11-19T13:23:08.494Z,102064.25
2022-11-19T13:25:37.931Z,102055.75
2022-11-19T13:28:20.963Z,102067.75
2022-11-19T13:30:51.254Z,102064.25
2022-11-19T13:33:26.374Z,102066.84
2022-11-19T13:36:03.411Z,102064.31
2022-11-19T13:38:44.682Z,102073.72
2022-11-19T13:41:17.605Z,102073.75
2022-11-19T13:44:03.506Z,102077.25
2022-11-19T13:46:37.540Z,102080.00
2022-11-19T13:49:12.719Z,102077.47
2022-11-19T13:51:43.796Z,102079.31
2022-11-19T13:54:25.407Z,102087.97
2022-11-19T13:56:56.985Z,102083.75
2022-11-19T13:59:32.290Z,102086.34
2022-11-19T14:02:29.073Z,102089.91
2022-11-19T14:05:17.530Z,102084.78
2022-11-19T14:08:09.094Z,102080.56
2022-11-19T14:10:46.848Z,102090.13
2022-11-19T14:13:28.850Z,102090.94
2022-11-19T14:16:31.799Z,102096.13
2022-11-19T14:19:21.767Z,102089.28
2022-11-19T14:22:09.995Z,102099.56
2022-11-19T14:25:15.416Z,102107.34
2022-11-19T14:27:47.352Z,102098.75
2022-11-19T14:30:18.670Z,102099.66
2022-11-19T14:32:50.044Z,102092.00
2022-11-19T14:35:38.547Z,102090.28
2022-11-19T14:38:30.026Z,102088.59
2022-11-19T14:41:08.246Z,102095.53
2022-11-19T14:44:09.859Z,102086.94
2022-11-19T14:46:47.827Z,102096.44
2022-11-19T14:49:31.979Z,102095.66
2022-11-19T14:52:00.477Z,102084.53
2022-11-19T14:54:35.090Z,102084.53
2022-11-19T14:57:15.284Z,102078.59
2022-11-19T14:59:49.668Z,102076.91
2022-11-19T15:02:24.809Z,102078.66
2022-11-19T15:05:04.992Z,102078.72
2022-11-19T15:07:43.381Z,102083.03
2022-11-19T15:10:46.222Z,102091.66
2022-11-19T15:13:32.531Z,102090.78
2022-11-19T15:16:10.148Z,102085.66
2022-11-19T15:19:22.846Z,102085.69
2022-11-19T15:22:29.869Z,102078.88
2022-11-19T15:25:20.296Z,102080.59
2022-11-19T15:27:58.283Z,102084.84
2022-11-19T15:30:39.006Z,102085.75
2022-11-19T15:33:34.445Z,102089.22
2022-11-19T15:36:27.748Z,102077.22
2022-11-19T15:39:01.525Z,102086.69
2022-11-19T15:41:32.929Z,102083.22
2022-11-19T15:44:07.122Z,102084.13
2022-11-19T15:46:41.422Z,102086.72
2022-11-19T15:49:19.106Z,102079.84
2022-11-19T15:52:01.426Z,102079.00
2022-11-19T15:54:31.022Z,102088.44
2022-11-19T15:57:01.395Z,102100.44
2022-11-19T15:59:31.595Z,102092.72
2022-11-19T16:02:02.223Z,102091.88
2022-11-19T16:04:38.505Z,102096.16
2022-11-19T16:07:09.651Z,102084.19
2022-11-19T16:09:38.975Z,102095.34
2022-11-19T16:12:24.757Z,102103.06
2022-11-19T16:15:12.278Z,102090.22
2022-11-19T16:17:45.474Z,102091.91
2022-11-19T16:20:24.121Z,102089.38
2022-11-19T16:22:56.484Z,102085.09
2022-11-19T16:25:34.049Z,102101.34
2022-11-19T16:28:06.065Z,102095.38
2022-11-19T16:30:46.710Z,102097.09
2022-11-19T16:33:18.774Z,102099.63
2022-11-19T16:35:52.809Z,102103.06
2022-11-19T16:38:27.967Z,102103.03
2022-11-19T16:41:14.206Z,102109.88
2022-11-19T16:43:45.173Z,102115.91
2022-11-19T16:46:16.094Z,102117.59
2022-11-19T16:49:03.438Z,102114.13
2022-11-19T16:51:39.859Z,102122.69
2022-11-19T16:54:09.594Z,102119.28
2022-11-19T16:56:43.967Z,102124.38
2022-11-19T16:59:20.445Z,102124.34
2022-11-19T17:01:57.250Z,102125.19
2022-11-19T17:04:28.530Z,102114.00
2022-11-19T17:06:58.608Z,102117.44
2022-11-19T17:09:33.339Z,102124.28
2022-11-19T17:12:19.408Z,102123.38
2022-11-19T17:14:51.081Z,102120.78
2022-11-19T17:17:40.378Z,102119.03
2022-11-19T17:21:01.225Z,102131.91
2022-11-19T17:23:31.722Z,102129.34
2022-11-19T17:26:01.957Z,102142.16
2022-11-19T17:28:35.177Z,102151.59
2022-11-19T17:31:06.473Z,102151.59
2022-11-19T17:33:36.743Z,102149.84
2022-11-19T17:36:05.317Z,102148.97
2022-11-19T17:38:35.119Z,102148.13
2022-11-19T17:41:07.443Z,102147.25
2022-11-19T17:43:55.339Z,102154.97
2022-11-19T17:46:24.478Z,102149.81
2022-11-19T17:48:53.953Z,102148.97
2022-11-19T17:51:24.283Z,102146.38
2022-11-19T17:53:54.369Z,102143.81
2022-11-19T17:56:23.693Z,102145.56
2022-11-19T17:58:51.621Z,102148.94
2022-11-19T18:01:20.409Z,102148.09
2022-11-19T18:03:49.167Z,102147.22
2022-11-19T18:06:19.161Z,102151.50
2022-11-19T18:08:47.284Z,102149.81
2022-11-19T18:11:18.846Z,102148.09
2022-11-19T18:13:48.572Z,102153.22
2022-11-19T18:16:18.949Z,102146.31
2022-11-19T18:18:46.886Z,102149.75
2022-11-19T18:21:16.385Z,102152.31
2022-11-19T18:23:46.344Z,102150.56
2022-11-19T18:26:17.122Z,102152.28
2022-11-19T18:28:48.752Z,102153.13
2022-11-19T18:31:20.046Z,102146.25
2022-11-19T18:33:49.258Z,102154.00
2022-11-19T18:36:17.886Z,102154.84
2022-11-19T18:38:46.157Z,102148.81
2022-11-19T18:41:18.909Z,102150.50
2022-11-19T18:44:04.781Z,102148.81
2022-11-19T18:46:32.987Z,102154.81
2022-11-19T18:49:00.938Z,102156.50
2022-11-19T18:51:31.234Z,102159.91
2022-11-19T18:53:59.592Z,102150.44
2022-11-19T18:56:30.843Z,102163.31
2022-11-19T18:59:03.352Z,102157.28
2022-11-19T19:01:32.821Z,102162.44
2022-11-19T19:04:02.135Z,102165.84
2022-11-19T19:06:30.422Z,102163.25
2022-11-19T19:08:58.326Z,102164.09
2022-11-19T19:11:43.645Z,102164.97
2022-11-19T19:14:12.951Z,102157.25
2022-11-19T19:16:40.797Z,102143.50
2022-11-19T19:19:08.804Z,102153.75
2022-11-19T19:21:36.783Z,102161.47
2022-11-19T19:24:06.017Z,102153.75
2022-11-19T19:26:34.638Z,102158.03
2022-11-19T19:29:03.087Z,102158.00
2022-11-19T19:31:32.536Z,102152.88
2022-11-19T19:34:00.752Z,102158.00
2022-11-19T19:36:29.049Z,102151.16
2022-11-19T19:38:56.895Z,102152.84
2022-11-19T19:41:26.869Z,102145.13
2022-11-19T19:43:57.366Z,102146.88
2022-11-19T19:46:25.566Z,102151.13
2022-11-19T19:48:56.824Z,102145.09
2022-11-19T19:51:26.341Z,102151.13
2022-11-19T19:53:55.021Z,102160.59
2022-11-19T19:56:24.681Z,102155.41
2022-11-19T19:58:53.092Z,102150.22
2022-11-19T20:01:24.205Z,102156.25
2022-11-19T20:03:54.732Z,102152.84
2022-11-19T20:06:24.759Z,102154.56
2022-11-19T20:08:53.088Z,102155.44
2022-11-19T20:11:24.641Z,102159.75
2022-11-19T20:13:52.996Z,102157.13
2022-11-19T20:16:22.841Z,102152.84
2022-11-19T20:18:51.859Z,102155.41
2022-11-19T20:21:22.308Z,102154.56
2022-11-19T20:23:52.154Z,102160.53
2022-11-19T20:26:21.775Z,102156.22
2022-11-19T20:28:54.925Z,102166.56
2022-11-19T20:31:22.765Z,102164.03
2022-11-19T20:33:53.763Z,102170.84
2022-11-19T20:36:23.246Z,102158.88
2022-11-19T20:38:52.847Z,102170.03
2022-11-19T20:41:39.793Z,102170.03
2022-11-19T20:44:23.526Z,102169.19
2022-11-19T20:46:53.443Z,102171.75
2022-11-19T20:49:23.474Z,102169.19
2022-11-19T20:51:52.726Z,102166.59
2022-11-19T20:54:22.629Z,102170.88
2022-11-19T20:56:52.023Z,102163.16
2022-11-19T20:59:20.630Z,102165.75
2022-11-19T21:01:48.992Z,102154.56
2022-11-19T21:04:17.425Z,102158.84
2022-11-19T21:06:45.311Z,102157.16
2022-11-19T21:09:14.810Z,102168.34
2022-11-19T21:11:45.132Z,102155.47
2022-11-19T21:14:13.610Z,102147.72
2022-11-19T21:16:41.739Z,102151.19
2022-11-19T21:19:10.542Z,102156.34
2022-11-19T21:21:38.855Z,102152.00
2022-11-19T21:24:07.758Z,102153.72
2022-11-19T21:26:35.909Z,102144.28
2022-11-19T21:29:05.358Z,102148.59
2022-11-19T21:31:42.241Z,102140.88
2022-11-19T21:34:12.573Z,102140.84
2022-11-19T21:36:41.934Z,102138.25
2022-11-19T21:39:11.212Z,102127.94
2022-11-19T21:41:39.667Z,102130.50
2022-11-19T21:44:09.150Z,102124.47
2022-11-19T21:46:38.118Z,102123.63
2022-11-19T21:49:06.418Z,102118.44
2022-11-19T21:51:34.649Z,102117.53
2022-11-19T21:54:02.560Z,102111.53
2022-11-19T21:56:33.853Z,102117.53
2022-11-19T21:59:06.252Z,102105.47
2022-11-19T22:01:36.082Z,102104.63
2022-11-19T22:04:04.494Z,102113.16
2022-11-19T22:06:33.468Z,102116.63
2022-11-19T22:09:01.387Z,102101.19
2022-11-19T22:11:32.416Z,102105.44
2022-11-19T22:14:02.949Z,102101.19
2022-11-19T22:16:31.453Z,102091.72
2022-11-19T22:19:01.148Z,102096.88
2022-11-19T22:21:30.290Z,102077.97
2022-11-19T22:23:58.772Z,102086.56
2022-11-19T22:26:27.047Z,102081.38
2022-11-19T22:28:55.588Z,102079.63
2022-11-19T22:31:24.194Z,102082.22
2022-11-19T22:33:53.930Z,102083.06
2022-11-19T22:36:24.449Z,102063.31
2022-11-19T22:38:53.192Z,102067.56
2022-11-19T22:41:22.781Z,102068.44
2022-11-19T22:43:51.105Z,102071.00
2022-11-19T22:46:20.286Z,102066.66
2022-11-19T22:48:48.573Z,102057.22
2022-11-19T22:51:18.068Z,102068.38
2022-11-19T22:53:48.975Z,102063.19
2022-11-19T22:56:18.650Z,102073.47
2022-11-19T22:58:46.728Z,102066.59
2022-11-19T23:01:18.284Z,102064.00
2022-11-19T23:03:46.989Z,102062.25
2022-11-19T23:06:15.693Z,102057.97
2022-11-19T23:08:43.720Z,102051.09
2022-11-19T23:11:14.587Z,102055.41
2022-11-19T23:13:43.620Z,102047.72
2022-11-19T23:16:13.856Z,102047.69
2022-11-19T23:18:46.964Z,102045.97
2022-11-19T23:21:17.765Z,102045.16
2022-11-19T23:23:46.077Z,102047.69
2022-11-19T23:26:17.309Z,102046.81
2022-11-19T23:28:46.318Z,102039.06
2022-11-19T23:31:16.784Z,102033.91
2022-11-19T23:33:45.149Z,102033.94
2022-11-19T23:36:15.286Z,102040.78
2022-11-19T23:38:43.313Z,102033.97
2022-11-19T23:41:13.089Z,102024.53
2022-11-19T23:43:42.533Z,102024.47
2022-11-19T23:46:13.431Z,102020.13
2022-11-19T23:48:43.056Z,102016.72
2022-11-19T23:51:12.584Z,102014.13
2022-11-19T23:53:40.650Z,102013.25
2022-11-19T23:56:09.149Z,102013.25
2022-11-19T23:58:38.003Z,102011.53
